createdAt,value
2018-10-09T00:00:01.467Z,100314.00
2018-10-09T00:02:30.380Z,100310.00
2018-10-09T00:04:59.524Z,100314.00
2018-10-09T00:07:28.621Z,100307.00
2018-10-09T00:09:57.755Z,100306.00
2018-10-09T00:12:26.870Z,100299.00
2018-10-09T00:14:56.016Z,100309.00
2018-10-09T00:17:25.145Z,100313.00
2018-10-09T00:22:47.882Z,100306.00
2018-10-09T00:25:17.038Z,100308.00
2018-10-09T00:27:46.259Z,100306.00
2018-10-09T00:30:15.448Z,100297.00
2018-10-09T00:32:44.616Z,100302.00
2018-10-09T00:35:13.586Z,100289.00
2018-10-09T00:37:42.770Z,100289.00
2018-10-09T00:40:11.721Z,100297.00
2018-10-09T00:42:40.899Z,100293.00
2018-10-09T00:45:10.111Z,100296.00
2018-10-09T00:47:39.354Z,100292.00
2018-10-09T00:50:08.875Z,100290.00
2018-10-09T00:52:38.135Z,100295.00
2018-10-09T00:55:07.967Z,100292.00
2018-10-09T00:57:37.359Z,100288.00
2018-10-09T01:00:07.389Z,100290.00
2018-10-09T01:02:36.334Z,100277.00
2018-10-09T01:05:05.314Z,100275.00
2018-10-09T01:07:34.479Z,100277.00
2018-10-09T01:10:03.419Z,100275.00
2018-10-09T01:12:32.602Z,100286.00
2018-10-09T01:15:01.833Z,100273.00
2018-10-09T01:17:30.822Z,100268.00
2018-10-09T01:20:00.063Z,100270.00
2018-10-09T01:22:29.298Z,100278.00
2018-10-09T01:24:58.488Z,100271.00
2018-10-09T01:27:27.474Z,100263.00
2018-10-09T01:29:56.448Z,100267.00
2018-10-09T01:32:25.654Z,100271.00
2018-10-09T01:34:54.852Z,100266.00
2018-10-09T01:37:24.038Z,100263.00
2018-10-09T01:39:52.986Z,100259.00
2018-10-09T01:42:22.173Z,100264.00
2018-10-09T01:44:51.334Z,100264.00
2018-10-09T01:47:20.554Z,100259.00
2018-10-09T01:49:49.751Z,100264.00
2018-10-09T01:52:19.074Z,100264.00
2018-10-09T01:54:48.364Z,100259.00
2018-10-09T01:57:17.612Z,100257.00
2018-10-09T01:59:46.569Z,100269.00
2018-10-09T02:02:15.762Z,100258.00
2018-10-09T02:04:44.981Z,100266.00
2018-10-09T02:07:14.180Z,100264.00
2018-10-09T02:09:43.372Z,100269.00
2018-10-09T02:12:12.325Z,100262.00
2018-10-09T02:14:41.513Z,100261.00
2018-10-09T02:17:10.718Z,100265.00
2018-10-09T02:19:39.648Z,100263.00
2018-10-09T02:22:08.924Z,100262.00
2018-10-09T02:24:38.088Z,100264.00
2018-10-09T02:27:07.945Z,100267.00
2018-10-09T02:29:37.131Z,100274.00
2018-10-09T02:32:06.128Z,100275.00
2018-10-09T02:34:35.285Z,100276.00
2018-10-09T02:37:04.519Z,100282.00
2018-10-09T02:39:33.680Z,100275.00
2018-10-09T02:42:02.892Z,100271.00
2018-10-09T02:44:32.075Z,100273.00
2018-10-09T02:47:01.248Z,100271.00
2018-10-09T02:49:30.169Z,100269.00
2018-10-09T02:51:59.397Z,100281.00
2018-10-09T02:54:28.605Z,100284.00
2018-10-09T02:56:57.851Z,100282.00
2018-10-09T02:59:27.031Z,100286.00
2018-10-09T03:01:56.224Z,100286.00
2018-10-09T03:04:25.216Z,100289.00
2018-10-09T03:06:54.358Z,100289.00
2018-10-09T03:09:23.320Z,100288.00
2018-10-09T03:11:52.250Z,100291.00
2018-10-09T03:14:21.507Z,100295.00
2018-10-09T03:16:50.694Z,100290.00
2018-10-09T03:19:19.625Z,100298.00
2018-10-09T03:21:48.778Z,100299.00
2018-10-09T03:24:17.982Z,100301.00
2018-10-09T03:26:47.176Z,100302.00
2018-10-09T03:29:16.323Z,100299.00
2018-10-09T03:31:45.254Z,100300.00
2018-10-09T03:34:14.612Z,100305.00
2018-10-09T03:36:43.570Z,100297.00
2018-10-09T03:39:12.895Z,100298.00
2018-10-09T03:41:42.067Z,100299.00
2018-10-09T03:44:11.271Z,100296.00
2018-10-09T03:46:40.474Z,100293.00
2018-10-09T03:49:09.712Z,100297.00
2018-10-09T03:51:38.795Z,100293.00
2018-10-09T03:54:08.342Z,100278.00
2018-10-09T03:56:37.629Z,100282.00
2018-10-09T03:59:07.177Z,100280.00
2018-10-09T04:01:36.375Z,100274.00
2018-10-09T04:04:11.947Z,100274.00
2018-10-09T04:06:41.171Z,100268.00
2018-10-09T04:09:12.910Z,100266.00
2018-10-09T04:11:42.754Z,100264.00
2018-10-09T04:14:11.928Z,100254.00
2018-10-09T04:16:41.128Z,100253.00
2018-10-09T04:19:10.339Z,100253.00
2018-10-09T04:21:39.522Z,100246.00
2018-10-09T04:24:08.684Z,100252.00
2018-10-09T04:26:37.839Z,100251.00
2018-10-09T04:29:06.992Z,100259.00
2018-10-09T04:31:36.247Z,100257.00
2018-10-09T04:34:05.175Z,100270.00
2018-10-09T04:36:34.337Z,100265.00
2018-10-09T04:39:03.746Z,100257.00
2018-10-09T04:41:32.983Z,100249.00
2018-10-09T04:44:01.955Z,100254.00
2018-10-09T04:46:31.169Z,100251.00
2018-10-09T04:49:00.145Z,100268.00
2018-10-09T04:51:29.347Z,100268.00
2018-10-09T04:53:58.564Z,100278.00
2018-10-09T04:56:27.733Z,100269.00
2018-10-09T04:58:56.969Z,100268.00
2018-10-09T05:01:25.910Z,100270.00
2018-10-09T05:03:55.055Z,100263.00
2018-10-09T05:06:24.012Z,100266.00
2018-10-09T05:08:53.334Z,100265.00
2018-10-09T05:11:22.552Z,100260.00
2018-10-09T05:13:51.530Z,100264.00
2018-10-09T05:16:21.091Z,100274.00
2018-10-09T05:18:50.313Z,100281.00
2018-10-09T05:21:19.513Z,100277.00
2018-10-09T05:23:48.920Z,100283.00
2018-10-09T05:26:18.179Z,100280.00
2018-10-09T05:28:47.511Z,100281.00
2018-10-09T05:31:16.959Z,100269.00
2018-10-09T05:33:46.100Z,100272.00
2018-10-09T05:36:15.419Z,100274.00
2018-10-09T05:38:44.935Z,100276.00
2018-10-09T05:41:13.903Z,100276.00
2018-10-09T05:43:43.100Z,100286.00
2018-10-09T05:46:12.305Z,100299.00
2018-10-09T05:48:41.685Z,100291.00
2018-10-09T05:51:10.866Z,100287.00
2018-10-09T05:53:39.796Z,100288.00
2018-10-09T05:56:09.080Z,100296.00
2018-10-09T05:58:38.352Z,100296.00
2018-10-09T06:01:07.520Z,100299.00
2018-10-09T06:03:36.716Z,100304.00
2018-10-09T06:06:05.672Z,100318.00
2018-10-09T06:08:34.851Z,100323.00
2018-10-09T06:11:04.124Z,100325.00
2018-10-09T06:13:33.042Z,100331.00
2018-10-09T06:16:02.268Z,100332.00
2018-10-09T06:18:31.166Z,100339.00
2018-10-09T06:21:00.628Z,100338.00
2018-10-09T06:23:29.815Z,100345.00
2018-10-09T06:25:59.050Z,100338.00
2018-10-09T06:28:28.500Z,100340.00
2018-10-09T06:30:57.881Z,100344.00
2018-10-09T06:33:27.092Z,100348.00
2018-10-09T06:35:57.089Z,100353.00
2018-10-09T06:38:26.266Z,100351.00
2018-10-09T06:40:55.267Z,100359.00
2018-10-09T06:43:24.439Z,100364.00
2018-10-09T06:45:53.460Z,100361.00
2018-10-09T06:48:22.746Z,100367.00
2018-10-09T06:50:51.707Z,100374.00
2018-10-09T06:53:21.157Z,100380.00
2018-10-09T06:55:50.301Z,100371.00
2018-10-09T06:58:19.280Z,100367.00
2018-10-09T07:00:48.538Z,100368.00
2018-10-09T07:03:17.501Z,100383.00
2018-10-09T07:05:46.721Z,100384.00
2018-10-09T07:08:15.908Z,100384.00
2018-10-09T07:10:45.180Z,100391.00
2018-10-09T07:13:14.442Z,100395.00
2018-10-09T07:15:43.664Z,100402.00
2018-10-09T07:18:12.865Z,100395.00
2018-10-09T07:20:42.062Z,100399.00
2018-10-09T07:23:11.270Z,100403.00
2018-10-09T07:25:40.439Z,100408.00
2018-10-09T07:28:09.745Z,100414.00
2018-10-09T07:30:38.687Z,100419.00
2018-10-09T07:33:08.481Z,100414.00
2018-10-09T07:35:37.474Z,100413.00
2018-10-09T07:38:06.439Z,100412.00
2018-10-09T07:40:35.757Z,100411.00
2018-10-09T07:43:05.102Z,100418.00
2018-10-09T07:45:34.474Z,100418.00
2018-10-09T07:48:03.697Z,100419.00
2018-10-09T07:50:32.964Z,100421.00
2018-10-09T07:53:02.039Z,100432.00
2018-10-09T07:55:30.969Z,100430.00
2018-10-09T07:57:59.948Z,100433.00
2018-10-09T08:00:28.993Z,100437.00
2018-10-09T08:02:57.951Z,100441.00
2018-10-09T08:05:27.179Z,100442.00
2018-10-09T08:07:56.140Z,100439.00
2018-10-09T08:10:25.142Z,100448.00
2018-10-09T08:12:54.059Z,100444.00
2018-10-09T08:15:23.056Z,100442.00
2018-10-09T08:17:52.317Z,100438.00
2018-10-09T08:20:21.992Z,100442.00
2018-10-09T08:22:51.385Z,100439.00
2018-10-09T08:25:20.883Z,100439.00
2018-10-09T08:27:49.942Z,100438.00
2018-10-09T08:30:19.056Z,100445.00
2018-10-09T08:32:48.250Z,100447.00
2018-10-09T08:35:23.676Z,100450.00
2018-10-09T08:37:53.001Z,100451.00
2018-10-09T08:40:22.000Z,100453.00
2018-10-09T08:42:51.218Z,100451.00
2018-10-09T08:45:20.208Z,100453.00
2018-10-09T08:47:49.463Z,100468.00
2018-10-09T08:50:18.812Z,100456.00
2018-10-09T08:52:48.037Z,100466.00
2018-10-09T08:55:17.280Z,100466.00
2018-10-09T08:57:46.525Z,100470.00
2018-10-09T09:00:15.712Z,100468.00
2018-10-09T09:02:44.956Z,100469.00
2018-10-09T09:05:14.128Z,100469.00
2018-10-09T09:07:43.301Z,100467.00
2018-10-09T09:10:12.277Z,100476.00
2018-10-09T09:12:41.498Z,100475.00
2018-10-09T09:15:10.703Z,100482.00
2018-10-09T09:17:39.955Z,100480.00
2018-10-09T09:20:09.175Z,100481.00
2018-10-09T09:22:38.362Z,100484.00
2018-10-09T09:25:07.583Z,100476.00
2018-10-09T09:27:36.798Z,100479.00
2018-10-09T09:30:07.003Z,100473.00
2018-10-09T09:32:36.248Z,100471.00
2018-10-09T09:35:05.610Z,100472.00
2018-10-09T09:37:34.927Z,100470.00
2018-10-09T09:40:03.913Z,100471.00
2018-10-09T09:42:33.159Z,100477.00
2018-10-09T09:45:02.394Z,100488.00
2018-10-09T09:47:31.692Z,100475.00
2018-10-09T09:50:00.673Z,100476.00
2018-10-09T09:52:29.839Z,100480.00
2018-10-09T09:54:59.062Z,100490.00
2018-10-09T09:57:28.276Z,100487.00
2018-10-09T09:59:57.490Z,100493.00
2018-10-09T10:02:26.815Z,100501.00
2018-10-09T10:04:56.032Z,100495.00
2018-10-09T10:07:25.256Z,100496.00
2018-10-09T10:09:54.444Z,100490.00
2018-10-09T10:12:23.496Z,100493.00
2018-10-09T10:14:52.704Z,100492.00
2018-10-09T10:17:21.908Z,100489.00
2018-10-09T10:19:51.167Z,100481.00
2018-10-09T10:22:20.416Z,100483.00
2018-10-09T10:24:49.656Z,100476.00
2018-10-09T10:27:18.844Z,100488.00
2018-10-09T10:29:47.799Z,100492.00
2018-10-09T10:32:16.739Z,100496.00
2018-10-09T10:34:45.946Z,100495.00
2018-10-09T10:37:14.922Z,100487.00
2018-10-09T10:39:44.121Z,100483.00
2018-10-09T10:42:13.193Z,100481.00
2018-10-09T10:44:42.154Z,100479.00
2018-10-09T10:47:11.356Z,100479.00
2018-10-09T10:49:40.594Z,100487.00
2018-10-09T10:52:09.859Z,100482.00
2018-10-09T10:54:39.026Z,100475.00
2018-10-09T10:57:08.290Z,100475.00
2018-10-09T10:59:37.518Z,100467.00
2018-10-09T11:02:06.817Z,100474.00
2018-10-09T11:04:35.768Z,100476.00
2018-10-09T11:07:04.748Z,100472.00
2018-10-09T11:09:34.189Z,100473.00
2018-10-09T11:12:03.411Z,100460.00
2018-10-09T11:14:32.847Z,100469.00
2018-10-09T11:17:02.252Z,100457.00
2018-10-09T11:19:31.553Z,100456.00
2018-10-09T11:22:00.749Z,100453.00
2018-10-09T11:24:29.985Z,100449.00
2018-10-09T11:26:59.183Z,100449.00
2018-10-09T11:29:28.428Z,100452.00
2018-10-09T11:31:57.396Z,100452.00
2018-10-09T11:34:26.470Z,100440.00
2018-10-09T11:36:55.393Z,100447.00
2018-10-09T11:39:24.733Z,100445.00
2018-10-09T11:41:53.993Z,100443.00
2018-10-09T11:44:23.179Z,100450.00
2018-10-09T11:46:52.146Z,100447.00
2018-10-09T11:49:21.384Z,100447.00
2018-10-09T11:51:50.618Z,100454.00
2018-10-09T11:54:19.847Z,100449.00
2018-10-09T11:56:49.027Z,100446.00
2018-10-09T11:59:17.972Z,100438.00
2018-10-09T12:01:47.151Z,100435.00
2018-10-09T12:04:16.376Z,100433.00
2018-10-09T12:06:45.503Z,100432.00
2018-10-09T12:09:15.003Z,100433.00
2018-10-09T12:11:44.244Z,100433.00
2018-10-09T12:14:14.167Z,100442.00
2018-10-09T12:16:43.388Z,100442.00
2018-10-09T12:19:12.677Z,100436.00
2018-10-09T12:21:41.619Z,100433.00
2018-10-09T12:24:10.947Z,100441.00
2018-10-09T12:26:40.208Z,100426.00
2018-10-09T12:29:09.454Z,100428.00
2018-10-09T12:31:38.720Z,100429.00
2018-10-09T12:34:08.456Z,100419.00
2018-10-09T12:36:37.426Z,100422.00
2018-10-09T12:39:12.691Z,100421.00
2018-10-09T12:41:42.151Z,100424.00
2018-10-09T12:44:11.393Z,100418.00
2018-10-09T12:46:40.604Z,100414.00
2018-10-09T12:49:09.930Z,100413.00
2018-10-09T12:51:39.223Z,100407.00
2018-10-09T12:54:08.440Z,100410.00
2018-10-09T12:56:37.475Z,100414.00
2018-10-09T12:59:06.707Z,100410.00
2018-10-09T13:01:35.947Z,100406.00
2018-10-09T13:04:05.182Z,100401.00
2018-10-09T13:06:34.403Z,100407.00
2018-10-09T13:09:03.608Z,100398.00
2018-10-09T13:11:32.582Z,100405.00
2018-10-09T13:14:01.526Z,100403.00
2018-10-09T13:16:30.804Z,100393.00
2018-10-09T13:19:00.076Z,100403.00
2018-10-09T13:21:29.307Z,100400.00
2018-10-09T13:23:58.515Z,100394.00
2018-10-09T13:26:27.739Z,100401.00
2018-10-09T13:28:56.926Z,100400.00
2018-10-09T13:31:25.884Z,100397.00
2018-10-09T13:33:54.865Z,100398.00
2018-10-09T13:36:23.796Z,100399.00
2018-10-09T13:38:53.261Z,100394.00
2018-10-09T13:41:22.236Z,100387.00
2018-10-09T13:43:51.489Z,100386.00
2018-10-09T13:46:20.510Z,100388.00
2018-10-09T13:48:49.996Z,100383.00
2018-10-09T13:51:18.928Z,100392.00
2018-10-09T13:53:48.171Z,100386.00
2018-10-09T13:56:17.361Z,100381.00
2018-10-09T13:58:46.552Z,100379.00
2018-10-09T14:01:15.789Z,100379.00
2018-10-09T14:03:44.728Z,100381.00
2018-10-09T14:06:13.867Z,100380.00
2018-10-09T14:08:42.771Z,100379.00
2018-10-09T14:11:12.367Z,100372.00
2018-10-09T14:13:41.751Z,100372.00
2018-10-09T14:16:11.120Z,100369.00
2018-10-09T14:18:41.035Z,100369.00
2018-10-09T14:21:10.343Z,100375.00
2018-10-09T14:23:39.539Z,100374.00
2018-10-09T14:26:08.543Z,100378.00
2018-10-09T14:28:37.516Z,100369.00
2018-10-09T14:31:06.709Z,100370.00
2018-10-09T14:33:35.932Z,100365.00
2018-10-09T14:36:04.979Z,100365.00
2018-10-09T14:38:34.192Z,100369.00
2018-10-09T14:41:03.152Z,100372.00
2018-10-09T14:43:32.358Z,100371.00
2018-10-09T14:46:01.541Z,100358.00
2018-10-09T14:48:30.727Z,100360.00
2018-10-09T14:50:59.928Z,100362.00
2018-10-09T14:53:29.111Z,100360.00
2018-10-09T14:55:58.326Z,100352.00
2018-10-09T14:58:27.578Z,100345.00
2018-10-09T15:00:56.605Z,100351.00
2018-10-09T15:03:26.002Z,100350.00
2018-10-09T15:05:55.273Z,100359.00
2018-10-09T15:08:24.333Z,100355.00
2018-10-09T15:10:53.318Z,100352.00
2018-10-09T15:13:22.521Z,100352.00
2018-10-09T15:15:51.695Z,100349.00
2018-10-09T15:18:20.915Z,100345.00
2018-10-09T15:20:50.123Z,100350.00
2018-10-09T15:23:19.335Z,100337.00
2018-10-09T15:25:48.290Z,100347.00
2018-10-09T15:28:17.456Z,100341.00
2018-10-09T15:30:46.599Z,100350.00
2018-10-09T15:33:15.848Z,100345.00
2018-10-09T15:35:45.037Z,100355.00
2018-10-09T15:38:14.015Z,100343.00
2018-10-09T15:40:43.601Z,100348.00
2018-10-09T15:43:13.012Z,100351.00
2018-10-09T15:45:42.190Z,100342.00
2018-10-09T15:48:11.125Z,100351.00
2018-10-09T15:50:40.337Z,100345.00
2018-10-09T15:53:09.518Z,100335.00
2018-10-09T15:55:38.470Z,100342.00
2018-10-09T15:58:07.459Z,100347.00
2018-10-09T16:00:36.402Z,100340.00
2018-10-09T16:03:05.910Z,100351.00
2018-10-09T16:05:35.427Z,100344.00
2018-10-09T16:08:04.446Z,100344.00
2018-10-09T16:10:33.438Z,100346.00
2018-10-09T16:13:02.875Z,100354.00
2018-10-09T16:15:32.378Z,100350.00
2018-10-09T16:18:01.858Z,100356.00
2018-10-09T16:23:52.582Z,100360.00
2018-10-09T16:26:22.171Z,100355.00
2018-10-09T16:28:51.927Z,100360.00
2018-10-09T16:31:21.491Z,100355.00
2018-10-09T16:33:50.526Z,100360.00
2018-10-09T16:36:19.577Z,100358.00
2018-10-09T16:38:48.848Z,100366.00
2018-10-09T16:41:18.161Z,100370.00
2018-10-09T16:43:47.678Z,100371.00
2018-10-09T16:46:16.657Z,100379.00
2018-10-09T16:48:45.675Z,100365.00
2018-10-09T16:51:15.066Z,100373.00
2018-10-09T16:53:44.352Z,100377.00
2018-10-09T16:56:13.641Z,100378.00
2018-10-09T16:58:42.716Z,100373.00
2018-10-09T17:01:11.676Z,100374.00
2018-10-09T17:03:40.907Z,100371.00
2018-10-09T17:06:10.088Z,100369.00
2018-10-09T17:08:39.727Z,100376.00
2018-10-09T17:11:09.010Z,100368.00
2018-10-09T17:13:38.328Z,100360.00
2018-10-09T17:16:07.713Z,100366.00
2018-10-09T17:18:37.201Z,100374.00
2018-10-09T17:21:06.539Z,100373.00
2018-10-09T17:23:36.005Z,100375.00
2018-10-09T17:26:05.244Z,100379.00
2018-10-09T17:28:34.727Z,100375.00
2018-10-09T17:31:04.340Z,100375.00
2018-10-09T17:33:33.707Z,100371.00
2018-10-09T17:36:02.641Z,100378.00
2018-10-09T17:38:31.605Z,100380.00
2018-10-09T17:41:01.037Z,100378.00
2018-10-09T17:43:30.524Z,100384.00
2018-10-09T17:45:59.765Z,100379.00
2018-10-09T17:48:29.008Z,100377.00
2018-10-09T17:50:58.106Z,100381.00
2018-10-09T17:53:27.131Z,100383.00
2018-10-09T17:55:56.170Z,100387.00
2018-10-09T17:58:25.144Z,100378.00
2018-10-09T18:00:54.412Z,100387.00
2018-10-09T18:03:23.974Z,100378.00
2018-10-09T18:05:52.923Z,100381.00
2018-10-09T18:08:22.129Z,100378.00
2018-10-09T18:10:51.087Z,100384.00
2018-10-09T18:13:20.280Z,100377.00
2018-10-09T18:15:49.492Z,100372.00
2018-10-09T18:18:18.652Z,100379.00
2018-10-09T18:20:47.665Z,100377.00
2018-10-09T18:23:16.925Z,100382.00
2018-10-09T18:25:46.143Z,100373.00
2018-10-09T18:28:15.316Z,100382.00
2018-10-09T18:30:44.271Z,100375.00
2018-10-09T18:33:13.701Z,100377.00
2018-10-09T18:35:42.607Z,100375.00
2018-10-09T18:38:11.824Z,100377.00
2018-10-09T18:40:41.372Z,100377.00
2018-10-09T18:43:10.557Z,100384.00
2018-10-09T18:45:39.831Z,100381.00
2018-10-09T18:48:09.191Z,100388.00
2018-10-09T18:50:38.632Z,100390.00
2018-10-09T18:53:08.070Z,100386.00
2018-10-09T18:55:37.246Z,100392.00
2018-10-09T18:58:06.798Z,100393.00
2018-10-09T19:00:36.581Z,100392.00
2018-10-09T19:03:06.111Z,100391.00
2018-10-09T19:05:36.240Z,100394.00
2018-10-09T19:08:05.573Z,100389.00
2018-10-09T19:10:34.805Z,100392.00
2018-10-09T19:13:03.767Z,100397.00
2018-10-09T19:15:33.006Z,100395.00
2018-10-09T19:18:02.261Z,100397.00
2018-10-09T19:20:31.138Z,100399.00
2018-10-09T19:23:00.314Z,100408.00
2018-10-09T19:25:29.551Z,100407.00
2018-10-09T19:27:58.799Z,100406.00
2018-10-09T19:30:27.839Z,100414.00
2018-10-09T19:32:56.808Z,100409.00
2018-10-09T19:35:26.149Z,100411.00
2018-10-09T19:37:55.145Z,100414.00
2018-10-09T19:40:24.180Z,100409.00
2018-10-09T19:42:53.150Z,100419.00
2018-10-09T19:45:22.106Z,100409.00
2018-10-09T19:47:51.374Z,100414.00
2018-10-09T19:50:20.370Z,100416.00
2018-10-09T19:52:49.403Z,100415.00
2018-10-09T19:55:18.697Z,100419.00
2018-10-09T19:57:47.897Z,100421.00
2018-10-09T20:00:16.862Z,100426.00
2018-10-09T20:02:46.168Z,100423.00
2018-10-09T20:05:15.125Z,100422.00
2018-10-09T20:07:44.452Z,100415.00
2018-10-09T20:10:13.451Z,100410.00
2018-10-09T20:12:42.576Z,100414.00
2018-10-09T20:15:11.824Z,100410.00
2018-10-09T20:17:41.074Z,100417.00
2018-10-09T20:20:10.349Z,100421.00
2018-10-09T20:22:39.859Z,100418.00
2018-10-09T20:25:08.927Z,100418.00
2018-10-09T20:27:37.907Z,100423.00
2018-10-09T20:30:07.095Z,100419.00
2018-10-09T20:32:36.047Z,100432.00
2018-10-09T20:35:05.008Z,100428.00
2018-10-09T20:37:34.288Z,100428.00
2018-10-09T20:40:03.232Z,100420.00
2018-10-09T20:42:32.443Z,100417.00
2018-10-09T20:45:01.676Z,100419.00
2018-10-09T20:47:36.094Z,100413.00
2018-10-09T20:50:05.329Z,100420.00
2018-10-09T20:52:34.544Z,100415.00
2018-10-09T20:55:04.036Z,100418.00
2018-10-09T20:57:32.987Z,100412.00
2018-10-09T21:00:02.196Z,100404.00
2018-10-09T21:02:31.472Z,100410.00
2018-10-09T21:05:00.706Z,100408.00
2018-10-09T21:07:29.747Z,100411.00
2018-10-09T21:09:58.919Z,100412.00
2018-10-09T21:12:27.891Z,100412.00
2018-10-09T21:14:57.093Z,100419.00
2018-10-09T21:17:26.367Z,100416.00
2018-10-09T21:19:55.528Z,100415.00
2018-10-09T21:22:24.736Z,100425.00
2018-10-09T21:24:53.938Z,100415.00
2018-10-09T21:27:23.132Z,100413.00
2018-10-09T21:29:52.416Z,100422.00
2018-10-09T21:32:21.577Z,100415.00
2018-10-09T21:34:50.550Z,100411.00
2018-10-09T21:37:19.737Z,100411.00
2018-10-09T21:39:48.910Z,100409.00
2018-10-09T21:42:18.137Z,100404.00
2018-10-09T21:44:47.144Z,100412.00
2018-10-09T21:47:16.331Z,100400.00
2018-10-09T21:49:45.655Z,100409.00
2018-10-09T21:52:14.857Z,100403.00
2018-10-09T21:54:44.064Z,100404.00
2018-10-09T21:57:13.257Z,100396.00
2018-10-09T21:59:42.512Z,100393.00
2018-10-09T22:02:11.495Z,100401.00
2018-10-09T22:04:40.459Z,100398.00
2018-10-09T22:07:14.112Z,100398.00
2018-10-09T22:09:43.048Z,100399.00
2018-10-09T22:12:12.365Z,100401.00
2018-10-09T22:14:41.340Z,100404.00
2018-10-09T22:17:10.566Z,100410.00
2018-10-09T22:19:39.794Z,100407.00
2018-10-09T22:22:08.999Z,100402.00
2018-10-09T22:24:38.211Z,100408.00
2018-10-09T22:27:07.464Z,100407.00
2018-10-09T22:29:36.403Z,100407.00
2018-10-09T22:32:05.589Z,100398.00
2018-10-09T22:34:34.761Z,100392.00
2018-10-09T22:37:03.936Z,100393.00
2018-10-09T22:39:32.865Z,100388.00
2018-10-09T22:42:02.076Z,100394.00
2018-10-09T22:44:31.244Z,100407.00
2018-10-09T22:47:00.469Z,100399.00
2018-10-09T22:49:29.958Z,100392.00
2018-10-09T22:51:59.228Z,100390.00
2018-10-09T22:54:28.498Z,100393.00
2018-10-09T22:56:57.737Z,100398.00
2018-10-09T22:59:27.286Z,100394.00
2018-10-09T23:01:56.263Z,100392.00
2018-10-09T23:04:25.358Z,100394.00
2018-10-09T23:06:54.630Z,100387.00
2018-10-09T23:09:23.708Z,100388.00
2018-10-09T23:11:53.023Z,100402.00
2018-10-09T23:14:22.308Z,100401.00
2018-10-09T23:16:51.516Z,100404.00
2018-10-09T23:19:21.366Z,100400.00
2018-10-09T23:21:50.460Z,100398.00
2018-10-09T23:24:19.668Z,100398.00
2018-10-09T23:26:48.922Z,100397.00
2018-10-09T23:29:18.167Z,100403.00
2018-10-09T23:31:47.358Z,100401.00
2018-10-09T23:34:16.694Z,100394.00
2018-10-09T23:36:45.926Z,100396.00
2018-10-09T23:39:15.157Z,100399.00
2018-10-09T23:41:44.082Z,100396.00
2018-10-09T23:44:13.309Z,100399.00
2018-10-09T23:46:42.516Z,100399.00
2018-10-09T23:49:11.815Z,100393.00
2018-10-09T23:51:40.780Z,100397.00
2018-10-09T23:54:10.095Z,100398.00
2018-10-09T23:56:39.335Z,100405.00
2018-10-09T23:59:08.596Z,100394.00
